createdAt,value
2019-01-03T00:02:28.676Z,102622.73
2019-01-03T00:05:19.792Z,102630.04
2019-01-03T00:07:53.043Z,102640.16
2019-01-03T00:10:28.814Z,102635.73
2019-01-03T00:13:01.783Z,102637.51
2019-01-03T00:15:53.285Z,102636.51
2019-01-03T00:18:38.837Z,102641.61
2019-01-03T00:21:12.020Z,102629.36
2019-01-03T00:23:48.222Z,102634.41
2019-01-03T00:26:24.479Z,102639.47
2019-01-03T00:28:57.095Z,102651.56
2019-01-03T00:31:30.041Z,102651.01
2019-01-03T00:34:08.897Z,102646.13
2019-01-03T00:36:57.454Z,102664.13
2019-01-03T00:39:33.169Z,102663.19
2019-01-03T00:42:27.416Z,102658.52
2019-01-03T00:45:13.925Z,102660.94
2019-01-03T00:47:56.124Z,102664.27
2019-01-03T00:50:44.121Z,102664.03
2019-01-03T00:53:20.285Z,102661.21
2019-01-03T00:56:08.594Z,102669.17
2019-01-03T00:58:41.745Z,102669.86
2019-01-03T01:01:27.143Z,102671.59
2019-01-03T01:04:00.473Z,102676.02
2019-01-03T01:06:42.295Z,102677.16
2019-01-03T01:09:21.452Z,102674.19
2019-01-03T01:11:54.328Z,102683.08
2019-01-03T01:14:27.336Z,102684.76
2019-01-03T01:17:09.928Z,102687.31
2019-01-03T01:19:45.730Z,102693.20
2019-01-03T01:22:32.717Z,102694.72
2019-01-03T01:25:18.041Z,102695.67
2019-01-03T01:27:50.931Z,102697.49
2019-01-03T01:30:23.882Z,102696.00
2019-01-03T01:33:05.769Z,102689.59
2019-01-03T01:35:52.183Z,102687.63
2019-01-03T01:38:22.374Z,102689.86
2019-01-03T01:40:58.742Z,102688.45
2019-01-03T01:43:41.075Z,102680.73
2019-01-03T01:46:29.707Z,102677.86
2019-01-03T01:49:11.695Z,102672.16
2019-01-03T01:51:44.625Z,102679.68
2019-01-03T01:54:20.851Z,102675.91
2019-01-03T01:56:54.220Z,102678.73
2019-01-03T01:59:30.056Z,102678.92
2019-01-03T02:02:18.144Z,102679.52
2019-01-03T02:05:03.009Z,102669.72
2019-01-03T02:07:44.650Z,102676.83
2019-01-03T02:10:33.828Z,102675.83
2019-01-03T02:13:04.039Z,102667.16
2019-01-03T02:15:52.862Z,102671.45
2019-01-03T02:18:32.262Z,102667.58
2019-01-03T02:21:08.605Z,102663.72
2019-01-03T02:23:38.843Z,102668.68
2019-01-03T02:26:12.415Z,102669.63
2019-01-03T02:28:51.454Z,102666.81
2019-01-03T02:31:39.771Z,102665.18
2019-01-03T02:34:27.911Z,102653.28
2019-01-03T02:36:58.158Z,102658.02
2019-01-03T02:39:34.289Z,102654.32
2019-01-03T02:42:24.322Z,102654.32
2019-01-03T02:50:40.492Z,102653.37
2019-01-03T02:53:27.287Z,102648.95
2019-01-03T02:56:00.454Z,102652.55
2019-01-03T02:58:39.699Z,102659.44
2019-01-03T03:04:07.608Z,102656.92
2019-01-03T03:06:37.834Z,102658.28
2019-01-03T03:09:13.383Z,102653.87
2019-01-03T03:12:07.360Z,102652.14
2019-01-03T03:14:40.483Z,102648.31
2019-01-03T03:17:13.372Z,102637.69
2019-01-03T03:19:43.559Z,102640.20
2019-01-03T03:22:19.400Z,102629.22
2019-01-03T03:27:59.235Z,102628.03
2019-01-03T03:30:48.523Z,102623.84
2019-01-03T03:33:33.858Z,102619.45
2019-01-03T03:36:13.379Z,102616.48
2019-01-03T03:39:02.011Z,102612.94
2019-01-03T03:41:35.095Z,102607.33
2019-01-03T03:47:14.955Z,102604.33
2019-01-03T03:49:54.064Z,102610.07
2019-01-03T03:52:30.045Z,102607.73
2019-01-03T03:55:00.249Z,102604.36
2019-01-03T03:57:41.893Z,102607.62
2019-01-03T04:00:31.074Z,102602.39
2019-01-03T04:03:20.690Z,102606.06
2019-01-03T04:06:10.121Z,102603.09
2019-01-03T04:08:40.371Z,102601.73
2019-01-03T04:11:26.928Z,102591.19
2019-01-03T04:14:06.764Z,102596.70
2019-01-03T04:16:45.642Z,102602.03
2019-01-03T04:19:38.261Z,102594.24
2019-01-03T04:22:14.114Z,102594.58
2019-01-03T04:24:44.358Z,102589.67
2019-01-03T04:27:32.726Z,102589.05
2019-01-03T04:30:06.183Z,102589.21
2019-01-03T04:32:51.216Z,102587.69
2019-01-03T04:35:38.125Z,102589.79
2019-01-03T04:38:26.138Z,102593.38
2019-01-03T04:41:12.163Z,102591.59
2019-01-03T04:44:00.643Z,102596.96
2019-01-03T04:46:33.510Z,102586.23
2019-01-03T04:49:09.208Z,102583.19
2019-01-03T04:51:55.796Z,102583.72
2019-01-03T04:54:31.902Z,102583.31
2019-01-03T04:57:18.487Z,102583.59
2019-01-03T05:00:04.841Z,102579.77
2019-01-03T05:02:37.690Z,102581.58
2019-01-03T05:05:22.779Z,102582.48
2019-01-03T05:07:57.375Z,102575.46
2019-01-03T05:13:28.714Z,102570.72
2019-01-03T05:16:01.937Z,102579.63
2019-01-03T05:18:47.868Z,102570.55
2019-01-03T05:21:34.411Z,102571.04
2019-01-03T05:24:19.442Z,102579.13
2019-01-03T05:26:52.599Z,102578.94
2019-01-03T05:29:25.517Z,102580.64
2019-01-03T05:31:55.732Z,102585.20
2019-01-03T05:34:41.195Z,102577.56
2019-01-03T05:37:14.538Z,102578.17
2019-01-03T05:42:48.255Z,102583.55
2019-01-03T05:45:18.437Z,102587.50
2019-01-03T05:48:00.553Z,102579.19
2019-01-03T05:50:48.672Z,102568.95
2019-01-03T05:53:21.996Z,102580.62
2019-01-03T05:55:52.293Z,102579.37
2019-01-03T05:58:22.492Z,102579.30
2019-01-03T06:00:58.567Z,102571.63
2019-01-03T06:03:34.239Z,102575.61
2019-01-03T06:06:16.260Z,102571.47
2019-01-03T06:09:02.603Z,102574.94
2019-01-03T06:14:41.162Z,102569.28
2019-01-03T06:17:27.732Z,102574.39
2019-01-03T06:23:05.832Z,102586.28
2019-01-03T06:25:44.519Z,102572.34
2019-01-03T06:28:31.186Z,102573.13
2019-01-03T06:31:02.430Z,102572.55
2019-01-03T06:33:44.783Z,102573.18
2019-01-03T06:39:01.564Z,102562.00
2019-01-03T06:41:39.929Z,102567.64
2019-01-03T06:44:19.353Z,102575.81
2019-01-03T06:46:52.468Z,102572.97
2019-01-03T06:49:28.412Z,102577.64
2019-01-03T06:51:58.627Z,102573.45
2019-01-03T06:54:45.690Z,102581.17
2019-01-03T06:57:32.244Z,102571.38
2019-01-03T07:00:11.014Z,102572.77
2019-01-03T07:02:59.055Z,102580.80
2019-01-03T07:08:33.042Z,102577.37
2019-01-03T07:11:08.691Z,102585.27
2019-01-03T07:19:30.822Z,102587.69
2019-01-03T07:22:06.903Z,102598.20
2019-01-03T07:24:49.077Z,102597.09
2019-01-03T07:27:25.276Z,102600.31
2019-01-03T07:29:55.513Z,102613.89
2019-01-03T07:32:34.745Z,102607.59
2019-01-03T07:35:26.976Z,102605.91
2019-01-03T07:38:16.379Z,102617.98
2019-01-03T07:41:05.727Z,102623.97
2019-01-03T07:43:41.530Z,102623.14
2019-01-03T07:46:20.631Z,102628.95
2019-01-03T07:49:09.632Z,102637.23
2019-01-03T07:51:42.404Z,102634.77
2019-01-03T07:57:16.475Z,102637.46
2019-01-03T07:59:48.747Z,102638.64
2019-01-03T08:05:09.428Z,102646.32
2019-01-03T08:07:51.622Z,102648.25
2019-01-03T08:10:43.062Z,102639.72
2019-01-03T08:13:19.079Z,102648.25
2019-01-03T08:15:51.973Z,102647.06
2019-01-03T08:18:33.937Z,102646.36
2019-01-03T08:21:09.462Z,102658.90
2019-01-03T08:23:45.517Z,102652.61
2019-01-03T08:26:32.162Z,102662.26
2019-01-03T08:29:13.738Z,102658.56
2019-01-03T08:31:48.673Z,102658.22
2019-01-03T08:34:27.581Z,102657.67
2019-01-03T08:37:14.247Z,102661.35
2019-01-03T08:39:53.017Z,102658.88
2019-01-03T08:45:24.178Z,102677.16
2019-01-03T08:48:12.062Z,102673.72
2019-01-03T08:50:51.546Z,102668.08
2019-01-03T08:53:24.847Z,102663.34
2019-01-03T08:55:57.980Z,102669.09
2019-01-03T08:58:34.096Z,102685.28
2019-01-03T09:01:07.085Z,102667.13
2019-01-03T09:03:53.228Z,102676.63
2019-01-03T09:06:24.344Z,102691.94
2019-01-03T09:09:16.467Z,102674.70
2019-01-03T09:12:05.320Z,102677.06
2019-01-03T09:17:42.606Z,102695.73
2019-01-03T09:20:21.406Z,102691.52
2019-01-03T09:23:13.439Z,102684.41
2019-01-03T09:25:43.638Z,102692.48
2019-01-03T09:28:29.761Z,102704.09
2019-01-03T09:31:05.821Z,102697.83
2019-01-03T09:33:39.116Z,102698.20
2019-01-03T09:36:25.432Z,102697.80
2019-01-03T09:39:14.389Z,102693.22
2019-01-03T09:41:50.581Z,102697.16
2019-01-03T09:44:28.189Z,102703.45
2019-01-03T09:46:57.178Z,102709.56
2019-01-03T09:49:25.887Z,102699.75
2019-01-03T09:51:57.233Z,102697.13
2019-01-03T09:54:25.785Z,102696.09
2019-01-03T09:56:57.351Z,102691.13
2019-01-03T09:59:25.902Z,102692.16
2019-01-03T10:01:54.435Z,102682.07
2019-01-03T10:04:26.079Z,102683.61
2019-01-03T10:06:54.645Z,102687.21
2019-01-03T10:09:23.196Z,102692.12
2019-01-03T10:11:51.745Z,102685.27
2019-01-03T10:14:20.329Z,102691.55
2019-01-03T10:16:48.875Z,102686.69
2019-01-03T10:19:17.756Z,102690.47
2019-01-03T10:21:46.322Z,102693.44
2019-01-03T10:24:14.909Z,102697.11
2019-01-03T10:26:46.232Z,102701.70
2019-01-03T10:29:14.768Z,102703.38
2019-01-03T10:31:46.442Z,102699.58
2019-01-03T10:34:19.633Z,102700.56
2019-01-03T10:36:48.235Z,102704.89
2019-01-03T10:39:18.087Z,102695.28
2019-01-03T10:41:46.617Z,102701.34
2019-01-03T10:44:19.570Z,102689.87
2019-01-03T10:46:51.079Z,102693.52
2019-01-03T10:49:21.159Z,102700.17
2019-01-03T10:51:52.444Z,102696.80
2019-01-03T10:54:21.067Z,102688.27
2019-01-03T10:56:51.163Z,102698.13
2019-01-03T10:59:22.553Z,102696.07
2019-01-03T11:01:51.099Z,102691.48
2019-01-03T11:04:22.550Z,102698.34
2019-01-03T11:06:54.025Z,102699.36
2019-01-03T11:09:25.282Z,102694.50
2019-01-03T11:11:54.199Z,102688.97
2019-01-03T11:14:22.745Z,102688.61
2019-01-03T11:16:51.695Z,102691.77
2019-01-03T11:19:23.186Z,102684.84
2019-01-03T11:21:54.697Z,102688.19
2019-01-03T11:24:23.249Z,102686.45
2019-01-03T11:26:56.159Z,102674.22
2019-01-03T11:29:25.074Z,102674.33
2019-01-03T11:31:53.630Z,102676.48
2019-01-03T11:34:22.174Z,102673.63
2019-01-03T11:36:53.782Z,102686.54
2019-01-03T11:39:22.492Z,102674.89
2019-01-03T11:41:51.063Z,102682.18
2019-01-03T11:44:21.159Z,102683.36
2019-01-03T11:46:51.650Z,102681.99
2019-01-03T11:49:20.196Z,102682.62
2019-01-03T11:51:48.784Z,102678.88
2019-01-03T11:54:19.422Z,102672.71
2019-01-03T11:56:49.944Z,102676.06
2019-01-03T11:59:21.415Z,102685.38
2019-01-03T12:01:53.031Z,102684.28
2019-01-03T12:04:24.323Z,102681.71
2019-01-03T12:06:52.874Z,102687.22
2019-01-03T12:09:21.434Z,102684.97
2019-01-03T12:11:53.026Z,102681.30
2019-01-03T12:14:21.571Z,102686.75
2019-01-03T12:16:52.936Z,102691.68
2019-01-03T12:19:21.492Z,102693.02
2019-01-03T12:21:53.082Z,102688.25
2019-01-03T12:24:21.634Z,102686.30
2019-01-03T12:26:50.181Z,102692.67
2019-01-03T12:29:21.682Z,102689.02
2019-01-03T12:31:50.638Z,102694.58
2019-01-03T12:34:22.122Z,102692.98
2019-01-03T12:36:50.698Z,102686.03
2019-01-03T12:39:22.259Z,102686.12
2019-01-03T12:41:50.806Z,102691.70
2019-01-03T12:44:22.232Z,102696.27
2019-01-03T12:46:51.134Z,102692.14
2019-01-03T12:49:23.803Z,102693.67
2019-01-03T12:51:52.352Z,102687.16
2019-01-03T12:54:20.968Z,102692.83
2019-01-03T12:56:49.559Z,102688.97
2019-01-03T12:59:18.180Z,102687.89
2019-01-03T13:01:47.169Z,102682.77
2019-01-03T13:04:18.790Z,102696.37
2019-01-03T13:06:50.407Z,102696.77
2019-01-03T13:09:22.985Z,102696.96
2019-01-03T13:11:51.588Z,102699.61
2019-01-03T13:14:23.027Z,102695.48
2019-01-03T13:16:51.570Z,102697.13
2019-01-03T13:19:23.088Z,102708.09
2019-01-03T13:21:56.632Z,102706.86
2019-01-03T13:24:24.919Z,102710.50
2019-01-03T13:26:56.246Z,102711.83
2019-01-03T13:29:27.497Z,102713.71
2019-01-03T13:31:56.452Z,102706.76
2019-01-03T13:34:25.057Z,102713.07
2019-01-03T13:36:56.643Z,102714.05
2019-01-03T13:39:29.072Z,102709.67
2019-01-03T13:41:57.721Z,102718.73
2019-01-03T13:44:26.273Z,102711.80
2019-01-03T13:46:55.246Z,102715.48
2019-01-03T13:49:26.644Z,102718.23
2019-01-03T13:51:55.190Z,102722.44
2019-01-03T13:54:26.408Z,102723.30
2019-01-03T13:56:54.964Z,102721.47
2019-01-03T13:59:23.518Z,102724.61
2019-01-03T14:01:52.068Z,102728.23
2019-01-03T14:04:20.630Z,102725.69
2019-01-03T14:06:49.346Z,102722.03
2019-01-03T14:09:18.449Z,102723.66
2019-01-03T14:11:47.024Z,102732.72
2019-01-03T14:14:15.640Z,102737.89
2019-01-03T14:16:49.193Z,102733.92
2019-01-03T14:19:18.881Z,102738.17
2019-01-03T14:21:49.767Z,102736.08
2019-01-03T14:24:18.340Z,102737.25
2019-01-03T14:26:48.037Z,102732.59
2019-01-03T14:29:21.970Z,102745.05
2019-01-03T14:31:50.528Z,102739.45
2019-01-03T14:34:19.153Z,102741.60
2019-01-03T14:36:50.420Z,102743.12
2019-01-03T14:39:23.597Z,102753.25
2019-01-03T14:41:52.511Z,102754.84
2019-01-03T14:44:24.088Z,102761.65
2019-01-03T14:46:55.524Z,102756.18
2019-01-03T14:49:24.406Z,102757.95
2019-01-03T14:51:52.960Z,102764.55
2019-01-03T14:54:24.255Z,102754.47
2019-01-03T14:56:52.816Z,102766.34
2019-01-03T14:59:21.369Z,102760.24
2019-01-03T15:01:50.147Z,102762.67
2019-01-03T15:04:18.691Z,102767.33
2019-01-03T15:06:49.580Z,102768.61
2019-01-03T15:09:21.382Z,102771.30
2019-01-03T15:11:52.846Z,102772.53
2019-01-03T15:14:21.391Z,102768.45
2019-01-03T15:16:53.035Z,102771.81
2019-01-03T15:19:21.593Z,102770.25
2019-01-03T15:21:52.868Z,102777.09
2019-01-03T15:24:21.425Z,102784.00
2019-01-03T15:26:55.052Z,102781.91
2019-01-03T15:29:23.303Z,102789.23
2019-01-03T15:31:51.930Z,102787.38
2019-01-03T15:34:23.192Z,102799.87
2019-01-03T15:36:54.801Z,102799.75
2019-01-03T15:39:23.348Z,102798.79
2019-01-03T15:41:51.898Z,102799.92
2019-01-03T15:44:23.454Z,102789.31
2019-01-03T15:46:52.010Z,102797.34
2019-01-03T15:49:20.575Z,102802.23
2019-01-03T15:51:49.203Z,102802.67
2019-01-03T15:54:20.924Z,102804.96
2019-01-03T15:56:49.840Z,102809.64
2019-01-03T15:59:18.474Z,102807.70
2019-01-03T16:01:49.591Z,102813.97
2019-01-03T16:04:21.074Z,102816.00
2019-01-03T16:06:51.256Z,102819.63
2019-01-03T16:09:22.585Z,102823.33
2019-01-03T16:11:53.857Z,102828.80
2019-01-03T16:14:22.403Z,102830.62
2019-01-03T16:16:50.976Z,102830.73
2019-01-03T16:19:22.414Z,102832.88
2019-01-03T16:21:53.935Z,102832.35
2019-01-03T16:24:25.422Z,102841.24
2019-01-03T16:26:53.989Z,102847.43
2019-01-03T16:29:22.543Z,102845.54
2019-01-03T16:31:51.082Z,102850.30
2019-01-03T16:34:21.179Z,102849.69
2019-01-03T16:36:51.266Z,102850.36
2019-01-03T16:39:21.703Z,102853.57
2019-01-03T16:41:52.961Z,102855.34
2019-01-03T16:44:24.984Z,102854.73
2019-01-03T16:46:56.592Z,102861.02
2019-01-03T16:49:27.860Z,102854.95
2019-01-03T16:51:56.416Z,102852.93
2019-01-03T16:54:24.980Z,102855.91
2019-01-03T16:56:53.537Z,102851.37
2019-01-03T16:59:22.093Z,102860.91
2019-01-03T17:01:51.044Z,102860.74
2019-01-03T17:04:22.326Z,102855.09
2019-01-03T17:06:53.911Z,102858.26
2019-01-03T17:09:25.494Z,102857.44
2019-01-03T17:11:54.035Z,102860.70
2019-01-03T17:14:25.326Z,102858.38
2019-01-03T17:16:56.856Z,102858.67
2019-01-03T17:19:25.451Z,102850.48
2019-01-03T17:21:56.746Z,102850.85
2019-01-03T17:24:25.321Z,102846.59
2019-01-03T17:26:55.072Z,102848.97
2019-01-03T17:29:23.659Z,102849.92
2019-01-03T17:31:52.231Z,102844.63
2019-01-03T17:34:20.825Z,102838.69
2019-01-03T17:36:52.400Z,102841.42
2019-01-03T17:39:23.776Z,102841.53
2019-01-03T17:41:55.351Z,102844.34
2019-01-03T17:44:23.967Z,102842.30
2019-01-03T17:46:55.434Z,102849.84
2019-01-03T17:49:24.010Z,102849.52
2019-01-03T17:51:52.610Z,102844.95
2019-01-03T17:54:21.206Z,102843.80
2019-01-03T17:56:51.383Z,102848.05
2019-01-03T17:59:20.834Z,102854.16
2019-01-03T18:01:52.464Z,102855.13
2019-01-03T18:04:23.768Z,102854.67
2019-01-03T18:06:52.336Z,102862.98
2019-01-03T18:09:21.251Z,102868.25
2019-01-03T18:11:51.364Z,102869.63
2019-01-03T18:14:22.705Z,102876.54
2019-01-03T18:16:54.255Z,102883.09
2019-01-03T18:19:22.821Z,102883.86
2019-01-03T18:21:51.421Z,102884.49
2019-01-03T18:24:25.915Z,102879.84
2019-01-03T18:26:56.117Z,102888.70
2019-01-03T18:29:24.665Z,102898.88
2019-01-03T18:31:56.059Z,102897.69
2019-01-03T18:34:24.620Z,102891.52
2019-01-03T18:36:54.462Z,102899.81
2019-01-03T18:39:23.386Z,102901.28
2019-01-03T18:41:51.946Z,102896.90
2019-01-03T18:44:20.537Z,102893.39
2019-01-03T18:46:49.339Z,102900.16
2019-01-03T18:49:19.562Z,102893.41
2019-01-03T18:51:48.468Z,102891.16
2019-01-03T18:54:20.060Z,102891.84
2019-01-03T18:56:51.665Z,102886.22
2019-01-03T18:59:23.602Z,102889.31
2019-01-03T19:01:55.179Z,102889.91
2019-01-03T19:04:26.677Z,102890.62
2019-01-03T19:06:55.247Z,102889.52
2019-01-03T19:09:23.799Z,102897.33
2019-01-03T19:11:52.354Z,102893.48
2019-01-03T19:14:24.023Z,102894.84
2019-01-03T19:16:55.301Z,102908.52
2019-01-03T19:19:23.904Z,102908.31
2019-01-03T19:21:52.520Z,102908.53
2019-01-03T19:24:21.496Z,102914.56
2019-01-03T19:26:50.062Z,102918.34
2019-01-03T19:29:21.432Z,102919.98
2019-01-03T19:31:56.116Z,102921.92
2019-01-03T19:34:24.971Z,102921.36
2019-01-03T19:36:53.645Z,102929.23
2019-01-03T19:39:22.252Z,102927.04
2019-01-03T19:41:53.645Z,102932.14
2019-01-03T19:44:23.928Z,102927.37
2019-01-03T19:46:55.744Z,102937.80
2019-01-03T19:49:24.384Z,102946.27
2019-01-03T19:51:55.972Z,102950.83
2019-01-03T19:54:24.580Z,102945.65
2019-01-03T19:56:55.214Z,102950.92
2019-01-03T19:59:26.345Z,102947.72
2019-01-03T20:01:57.703Z,102954.58
2019-01-03T20:04:26.270Z,102954.97
2019-01-03T20:06:58.378Z,102959.84
2019-01-03T20:09:29.662Z,102956.69
2019-01-03T20:12:00.950Z,102950.64
2019-01-03T20:14:29.536Z,102948.87
2019-01-03T20:16:59.107Z,102942.17
2019-01-03T20:19:31.193Z,102943.96
2019-01-03T20:22:02.766Z,102937.24
2019-01-03T20:24:31.359Z,102937.77
2019-01-03T20:27:02.724Z,102939.47
2019-01-03T20:29:31.337Z,102936.10
2019-01-03T20:31:59.899Z,102935.03
2019-01-03T20:34:30.020Z,102937.94
2019-01-03T20:36:58.702Z,102932.28
2019-01-03T20:39:27.614Z,102935.97
2019-01-03T20:41:56.195Z,102938.20
2019-01-03T20:44:24.743Z,102925.44
2019-01-03T20:46:54.560Z,102929.27
2019-01-03T20:49:23.146Z,102930.25
2019-01-03T20:51:51.712Z,102923.00
2019-01-03T20:54:20.294Z,102926.62
2019-01-03T20:56:48.947Z,102927.23
2019-01-03T20:59:20.780Z,102928.86
2019-01-03T21:01:52.024Z,102927.17
2019-01-03T21:04:20.669Z,102930.25
2019-01-03T21:06:52.318Z,102916.55
2019-01-03T21:09:20.879Z,102914.75
2019-01-03T21:11:49.532Z,102913.73
2019-01-03T21:14:18.547Z,102919.80
2019-01-03T21:16:52.861Z,102911.83
2019-01-03T21:19:24.805Z,102914.73
2019-01-03T21:21:56.380Z,102910.92
2019-01-03T21:24:27.987Z,102918.64
2019-01-03T21:26:56.563Z,102923.81
2019-01-03T21:29:25.117Z,102925.08
2019-01-03T21:31:53.689Z,102923.40
2019-01-03T21:34:22.245Z,102927.23
2019-01-03T21:36:54.996Z,102929.11
2019-01-03T21:39:26.438Z,102931.41
2019-01-03T21:41:55.006Z,102932.28
2019-01-03T21:44:23.567Z,102930.45
2019-01-03T21:46:55.084Z,102932.95
2019-01-03T21:49:26.655Z,102920.03
2019-01-03T21:51:55.264Z,102918.95
2019-01-03T21:54:26.487Z,102911.84
2019-01-03T21:56:57.736Z,102910.23
2019-01-03T21:59:26.332Z,102911.55
2019-01-03T22:01:54.897Z,102915.38
2019-01-03T22:04:23.458Z,102911.84
2019-01-03T22:06:52.013Z,102903.12
2019-01-03T22:09:20.581Z,102904.25
2019-01-03T22:11:51.072Z,102903.18
2019-01-03T22:14:20.278Z,102898.63
2019-01-03T22:16:51.761Z,102901.44
2019-01-03T22:19:23.109Z,102895.26
2019-01-03T22:21:51.658Z,102888.32
2019-01-03T22:24:20.597Z,102892.24
2019-01-03T22:26:51.049Z,102892.24
2019-01-03T22:29:21.160Z,102892.50
2019-01-03T22:31:54.038Z,102888.38
2019-01-03T22:34:25.326Z,102888.31
2019-01-03T22:36:53.894Z,102873.20
2019-01-03T22:39:22.968Z,102865.25
2019-01-03T22:41:54.677Z,102874.93
2019-01-03T22:44:23.257Z,102870.55
2019-01-03T22:46:51.861Z,102876.02
2019-01-03T22:49:20.427Z,102884.55
2019-01-03T22:51:51.958Z,102884.21
2019-01-03T22:54:23.621Z,102889.61
2019-01-03T22:56:52.650Z,102886.37
2019-01-03T22:59:24.067Z,102890.16
2019-01-03T23:01:52.631Z,102889.08
2019-01-03T23:04:23.876Z,102879.88
2019-01-03T23:06:52.434Z,102884.78
2019-01-03T23:09:20.987Z,102891.22
2019-01-03T23:11:49.556Z,102890.67
2019-01-03T23:14:18.124Z,102896.80
2019-01-03T23:16:51.196Z,102891.17
2019-01-03T23:19:22.503Z,102891.28
2019-01-03T23:21:53.748Z,102891.28
2019-01-03T23:24:25.732Z,102893.72
2019-01-03T23:26:54.293Z,102899.70
2019-01-03T23:29:25.616Z,102901.91
2019-01-03T23:31:54.214Z,102889.75
2019-01-03T23:34:28.176Z,102901.64
2019-01-03T23:36:53.054Z,102904.66
2019-01-03T23:39:24.362Z,102895.20
2019-01-03T23:41:55.674Z,102893.30
2019-01-03T23:44:27.038Z,102899.02
2019-01-03T23:46:57.111Z,102898.79
2019-01-03T23:49:28.400Z,102886.78
2019-01-03T23:51:59.770Z,102892.95
2019-01-03T23:54:31.258Z,102896.58
2019-01-03T23:56:59.865Z,102901.91
2019-01-03T23:59:31.370Z,102899.54
